Kezdőlap
METAR-TAF:

METAR-TAF

Repülőterek :

Vinton Veterans Memorial Airpark

Vinton, Iowa, Amerikai Egyesült Államok

földrajzi szélesség: 42-13-07N, földrajzi hosszúság: 092-01-33W, magasság: 258 m

Jelenlegi meteorológiai megfigyelések

A jelentés 23 perccel ezelõtt készült, 08:35 UTC
Szélcsend
Hőmérséklet -3°C
Páratartalom 74%
Légköri nyomás 1020 hPa
Látótávolság: 16.1 km
Szórványos felhőzet 3000 lábon
Szórványos felhőzet 3900 lábon
Borult 5000 lábon

METAR: KVTI 270835Z AUTO 00000KT 10SM SCT030 SCT039 OVC050 M03/M07 A3013 RMK AO2 T10351066

Idő: 02:58 (08:58 UTC)


TAF: hiányzik

Meteorológiai megfigyelések és előrejelzések több, mint 4000 repülőtéren (METAR és TAF jelentéseket).

A térképen piros és sárga pontok jelzik az elérhető meteorológiai állomásokat.

Mozgassa az egeret a pont fölött, hogy megjelenjen az állomás neve.

Azután kattintson az időjárási megfigyelések és előrejelzések megtekintéséhez.

A térkép megváltoztatása: kattintson a fekete keresztel jelölt zöld gombra ráközelítéshez, a vonallal jelölt zöld gombra távolításhoz, vagy a zöld nyilakra a szomszédos térképek eléréséhez.


METAR-TAF: